Aviation Digital Data Service (ADDS)

Output produced by METARs form (0417 UTC 26 June 2019)
found at http://www.aviationweather.gov/metar/data/
 
METAR text: PASI 260353Z 30015KT 10SM FEW025 16/12 A3000 RMK AO2 SLP159 T01560117
Conditions at: PASI (SITKA , AK, US) observed 0353 UTC 26 June 2019
Temperature: 15.6°C (60°F)
Dewpoint: 11.7°C (53°F) [RH = 78%]
Pressure (altimeter): 30.00 inches Hg (1016.0 mb)
[Sea-level pressure: 1015.9 mb]
Winds: from the WNW (300 degrees) at 17 MPH (15 knots; 7.7 m/s)
Visibility: 10 or more miles (16+ km)
Ceiling: at least 12,000 feet AGL
Clouds: few clouds at 2500 feet AGL
Weather: no significant weather observed at this time

METAR text: PASI 260253Z 30013KT 10SM CLR 16/12 A2999 RMK AO2 SLP157 T01610117 56005
Conditions at: PASI (SITKA , AK, US) observed 0253 UTC 26 June 2019
Temperature: 16.1°C (61°F)
Dewpoint: 11.7°C (53°F) [RH = 75%]
Pressure (altimeter): 29.99 inches Hg (1015.7 mb)
[Sea-level pressure: 1015.7 mb]
Winds: from the WNW (300 degrees) at 15 MPH (13 knots; 6.7 m/s)
Visibility: 10 or more miles (16+ km)
Ceiling: at least 12,000 feet AGL
Clouds: sky clear below 12,000 feet AGL
Weather: no significant weather observed at this time

METAR text: PASI 260153Z 29015KT 10SM FEW025 17/11 A3000 RMK AO2 SLP157 T01720111
Conditions at: PASI (SITKA , AK, US) observed 0153 UTC 26 June 2019
Temperature: 17.2°C (63°F)
Dewpoint: 11.1°C (52°F) [RH = 67%]
Pressure (altimeter): 30.00 inches Hg (1016.0 mb)
[Sea-level pressure: 1015.7 mb]
Winds: from the WNW (290 degrees) at 17 MPH (15 knots; 7.7 m/s)
Visibility: 10 or more miles (16+ km)
Ceiling: at least 12,000 feet AGL
Clouds: few clouds at 2500 feet AGL
Weather: no significant weather observed at this time

METAR text: PASI 260053Z 29017KT 10SM FEW030 18/12 A3000 RMK AO2 SLP158 T01780117
Conditions at: PASI (SITKA , AK, US) observed 0053 UTC 26 June 2019
Temperature: 17.8°C (64°F)
Dewpoint: 11.7°C (53°F) [RH = 67%]
Pressure (altimeter): 30.00 inches Hg (1016.0 mb)
[Sea-level pressure: 1015.8 mb]
Winds: from the WNW (290 degrees) at 20 MPH (17 knots; 8.7 m/s)
Visibility: 10 or more miles (16+ km)
Ceiling: at least 12,000 feet AGL
Clouds: few clouds at 3000 feet AGL
Weather: no significant weather observed at this time

METAR text: PASI 252353Z 29014KT 10SM FEW030 18/12 A3001 RMK AO2 SLP162 T01780122 10183 20144 58004
Conditions at: PASI (SITKA , AK, US) observed 2353 UTC 25 June 2019
Temperature: 17.8°C (64°F)
Dewpoint: 12.2°C (54°F) [RH = 70%]
Pressure (altimeter): 30.01 inches Hg (1016.3 mb)
[Sea-level pressure: 1016.2 mb]
Winds: from the WNW (290 degrees) at 16 MPH (14 knots; 7.2 m/s)
Visibility: 10 or more miles (16+ km)
Ceiling: at least 12,000 feet AGL
Clouds: few clouds at 3000 feet AGL
Weather: no significant weather observed at this time

METAR text: PASI 252253Z 29014KT 10SM FEW030 18/12 A3001 RMK AO2 SLP163 T01780122
Conditions at: PASI (SITKA , AK, US) observed 2253 UTC 25 June 2019
Temperature: 17.8°C (64°F)
Dewpoint: 12.2°C (54°F) [RH = 70%]
Pressure (altimeter): 30.01 inches Hg (1016.3 mb)
[Sea-level pressure: 1016.3 mb]
Winds: from the WNW (290 degrees) at 16 MPH (14 knots; 7.2 m/s)
Visibility: 10 or more miles (16+ km)
Ceiling: at least 12,000 feet AGL
Clouds: few clouds at 3000 feet AGL
Weather: no significant weather observed at this time

METAR text: PASI 252153Z 30015KT 10SM FEW020 17/12 A3002 RMK AO2 SLP166 T01670117
Conditions at: PASI (SITKA , AK, US) observed 2153 UTC 25 June 2019
Temperature: 16.7°C (62°F)
Dewpoint: 11.7°C (53°F) [RH = 72%]
Pressure (altimeter): 30.02 inches Hg (1016.7 mb)
[Sea-level pressure: 1016.6 mb]
Winds: from the WNW (300 degrees) at 17 MPH (15 knots; 7.7 m/s)
Visibility: 10 or more miles (16+ km)
Ceiling: at least 12,000 feet AGL
Clouds: few clouds at 2000 feet AGL
Weather: no significant weather observed at this time

METAR text: PASI 252053Z 30014KT 10SM FEW020 16/11 A3002 RMK AO2 SLP166 T01610111 58004
Conditions at: PASI (SITKA , AK, US) observed 2053 UTC 25 June 2019
Temperature: 16.1°C (61°F)
Dewpoint: 11.1°C (52°F) [RH = 72%]
Pressure (altimeter): 30.02 inches Hg (1016.7 mb)
[Sea-level pressure: 1016.6 mb]
Winds: from the WNW (300 degrees) at 16 MPH (14 knots; 7.2 m/s)
Visibility: 10 or more miles (16+ km)
Ceiling: at least 12,000 feet AGL
Clouds: few clouds at 2000 feet AGL
Weather: no significant weather observed at this time

METAR text: PASI 251953Z 30012KT 10SM FEW024 17/12 A3003 RMK AO2 SLP168 T01670117
Conditions at: PASI (SITKA , AK, US) observed 1953 UTC 25 June 2019
Temperature: 16.7°C (62°F)
Dewpoint: 11.7°C (53°F) [RH = 72%]
Pressure (altimeter): 30.03 inches Hg (1017.0 mb)
[Sea-level pressure: 1016.8 mb]
Winds: from the WNW (300 degrees) at 14 MPH (12 knots; 6.2 m/s)
Visibility: 10 or more miles (16+ km)
Ceiling: at least 12,000 feet AGL
Clouds: few clouds at 2400 feet AGL
Weather: no significant weather observed at this time

METAR text: PASI 251853Z 31011KT 10SM SCT024 15/11 A3003 RMK AO2 SLP168 T01500111
Conditions at: PASI (SITKA , AK, US) observed 1853 UTC 25 June 2019
Temperature: 15.0°C (59°F)
Dewpoint: 11.1°C (52°F) [RH = 77%]
Pressure (altimeter): 30.03 inches Hg (1017.0 mb)
[Sea-level pressure: 1016.8 mb]
Winds: from the NW (310 degrees) at 13 MPH (11 knots; 5.7 m/s)
Visibility: 10 or more miles (16+ km)
Ceiling: at least 12,000 feet AGL
Clouds: scattered clouds at 2400 feet AGL
Weather: no significant weather observed at this time

METAR text: PASI 251827Z 31010KT 10SM SCT024 15/11 A3003 RMK AO2 T01500111
Conditions at: PASI (SITKA , AK, US) observed 1827 UTC 25 June 2019
Temperature: 15.0°C (59°F)
Dewpoint: 11.1°C (52°F) [RH = 77%]
Pressure (altimeter): 30.03 inches Hg (1017.0 mb)
Winds: from the NW (310 degrees) at 12 MPH (10 knots; 5.1 m/s)
Visibility: 10 or more miles (16+ km)
Ceiling: at least 12,000 feet AGL
Clouds: scattered clouds at 2400 feet AGL
Weather: no significant weather observed at this time

METAR text: PASI 251753Z 31012KT 10SM BKN022 14/11 A3003 RMK AO2 SLP170 T01440111 10144 20122 56003
Conditions at: PASI (SITKA , AK, US) observed 1753 UTC 25 June 2019
Temperature: 14.4°C (58°F)
Dewpoint: 11.1°C (52°F) [RH = 81%]
Pressure (altimeter): 30.03 inches Hg (1017.0 mb)
[Sea-level pressure: 1017.0 mb]
Winds: from the NW (310 degrees) at 14 MPH (12 knots; 6.2 m/s)
Visibility: 10 or more miles (16+ km)
Ceiling: 2200 feet AGL
Clouds: broken clouds at 2200 feet AGL
Weather: no significant weather observed at this time

METAR text: PASI 251653Z 31010KT 10SM BKN023 14/10 A3004 RMK AO2 SLP171 T01390100
Conditions at: PASI (SITKA , AK, US) observed 1653 UTC 25 June 2019
Temperature: 13.9°C (57°F)
Dewpoint: 10.0°C (50°F) [RH = 77%]
Pressure (altimeter): 30.04 inches Hg (1017.4 mb)
[Sea-level pressure: 1017.1 mb]
Winds: from the NW (310 degrees) at 12 MPH (10 knots; 5.1 m/s)
Visibility: 10 or more miles (16+ km)
Ceiling: 2300 feet AGL
Clouds: broken clouds at 2300 feet AGL
Weather: no significant weather observed at this time

METAR text: PASI 251553Z 32011KT 10SM BKN021 14/10 A3004 RMK AO2 SLP172 T01390100
Conditions at: PASI (SITKA , AK, US) observed 1553 UTC 25 June 2019
Temperature: 13.9°C (57°F)
Dewpoint: 10.0°C (50°F) [RH = 77%]
Pressure (altimeter): 30.04 inches Hg (1017.4 mb)
[Sea-level pressure: 1017.2 mb]
Winds: from the NW (320 degrees) at 13 MPH (11 knots; 5.7 m/s)
Visibility: 10 or more miles (16+ km)
Ceiling: 2100 feet AGL
Clouds: broken clouds at 2100 feet AGL
Weather: no significant weather observed at this time

METAR text: PASI 251453Z 31004KT 10SM BKN021 14/10 A3004 RMK AO2 SLP173 T01390100 51002
Conditions at: PASI (SITKA , AK, US) observed 1453 UTC 25 June 2019
Temperature: 13.9°C (57°F)
Dewpoint: 10.0°C (50°F) [RH = 77%]
Pressure (altimeter): 30.04 inches Hg (1017.4 mb)
[Sea-level pressure: 1017.3 mb]
Winds: from the NW (310 degrees) at 5 MPH (4 knots; 2.1 m/s)
Visibility: 10 or more miles (16+ km)
Ceiling: 2100 feet AGL
Clouds: broken clouds at 2100 feet AGL
Weather: no significant weather observed at this time

METAR text: PASI 251353Z 06007KT 10SM BKN019 14/09 A3004 RMK AO2 SLP172 T01440094
Conditions at: PASI (SITKA , AK, US) observed 1353 UTC 25 June 2019
Temperature: 14.4°C (58°F)
Dewpoint: 9.4°C (49°F) [RH = 72%]
Pressure (altimeter): 30.04 inches Hg (1017.4 mb)
[Sea-level pressure: 1017.2 mb]
Winds: from the ENE (60 degrees) at 8 MPH (7 knots; 3.6 m/s)
Visibility: 10 or more miles (16+ km)
Ceiling: 1900 feet AGL
Clouds: broken clouds at 1900 feet AGL
Weather: no significant weather observed at this time

METAR text: PASI 251253Z 08004KT 10SM BKN022 13/09 A3004 RMK AO2 SLP174 T01280094
Conditions at: PASI (SITKA , AK, US) observed 1253 UTC 25 June 2019
Temperature: 12.8°C (55°F)
Dewpoint: 9.4°C (49°F) [RH = 80%]
Pressure (altimeter): 30.04 inches Hg (1017.4 mb)
[Sea-level pressure: 1017.4 mb]
Winds: from the E (80 degrees) at 5 MPH (4 knots; 2.1 m/s)
Visibility: 10 or more miles (16+ km)
Ceiling: 2200 feet AGL
Clouds: broken clouds at 2200 feet AGL
Weather: no significant weather observed at this time

METAR text: PASI 251153Z 00000KT 10SM BKN025 12/09 A3004 RMK AO2 SLP171 T01220089 10139 20111 58001
Conditions at: PASI (SITKA , AK, US) observed 1153 UTC 25 June 2019
Temperature: 12.2°C (54°F)
Dewpoint: 8.9°C (48°F) [RH = 80%]
Pressure (altimeter): 30.04 inches Hg (1017.4 mb)
[Sea-level pressure: 1017.1 mb]
Winds: calm
Visibility: 10 or more miles (16+ km)
Ceiling: 2500 feet AGL
Clouds: broken clouds at 2500 feet AGL
Weather: no significant weather observed at this time

METAR text: PASI 251053Z 00000KT 10SM BKN023 11/09 A3004 RMK AO2 SLP172 T01110094
Conditions at: PASI (SITKA , AK, US) observed 1053 UTC 25 June 2019
Temperature: 11.1°C (52°F)
Dewpoint: 9.4°C (49°F) [RH = 89%]
Pressure (altimeter): 30.04 inches Hg (1017.4 mb)
[Sea-level pressure: 1017.2 mb]
Winds: calm
Visibility: 10 or more miles (16+ km)
Ceiling: 2300 feet AGL
Clouds: broken clouds at 2300 feet AGL
Weather: no significant weather observed at this time

METAR text: PASI 251015Z 06004KT 10SM FEW021 12/09 A3004 RMK AO2 T01170094
Conditions at: PASI (SITKA , AK, US) observed 1015 UTC 25 June 2019
Temperature: 11.7°C (53°F)
Dewpoint: 9.4°C (49°F) [RH = 86%]
Pressure (altimeter): 30.04 inches Hg (1017.4 mb)
Winds: from the ENE (60 degrees) at 5 MPH (4 knots; 2.1 m/s)
Visibility: 10 or more miles (16+ km)
Ceiling: at least 12,000 feet AGL
Clouds: few clouds at 2100 feet AGL
Weather: no significant weather observed at this time

METAR text: PASI 250953Z 35005KT 10SM BKN021 BKN026 13/09 A3004 RMK AO2 SLP174 T01280094
Conditions at: PASI (SITKA , AK, US) observed 0953 UTC 25 June 2019
Temperature: 12.8°C (55°F)
Dewpoint: 9.4°C (49°F) [RH = 80%]
Pressure (altimeter): 30.04 inches Hg (1017.4 mb)
[Sea-level pressure: 1017.4 mb]
Winds: from the N (350 degrees) at 6 MPH (5 knots; 2.6 m/s)
Visibility: 10 or more miles (16+ km)
Ceiling: 2100 feet AGL
Clouds: broken clouds at 2100 feet AGL
broken clouds at 2600 feet AGL
Weather: no significant weather observed at this time

METAR text: PASI 250922Z 28003KT 10SM BKN020 12/10 A3004 RMK AO2 T01220100
Conditions at: PASI (SITKA , AK, US) observed 0922 UTC 25 June 2019
Temperature: 12.2°C (54°F)
Dewpoint: 10.0°C (50°F) [RH = 86%]
Pressure (altimeter): 30.04 inches Hg (1017.4 mb)
Winds: from the W (280 degrees) at 3 MPH (3 knots; 1.5 m/s)
Visibility: 10 or more miles (16+ km)
Ceiling: 2000 feet AGL
Clouds: broken clouds at 2000 feet AGL
Weather: no significant weather observed at this time

METAR text: PASI 250853Z 01005KT 10SM FEW021 13/10 A3004 RMK AO2 SLP173 T01280100 401780083 50003
Conditions at: PASI (SITKA , AK, US) observed 0853 UTC 25 June 2019
Temperature: 12.8°C (55°F)
Dewpoint: 10.0°C (50°F) [RH = 83%]
Pressure (altimeter): 30.04 inches Hg (1017.4 mb)
[Sea-level pressure: 1017.3 mb]
Winds: from the N (10 degrees) at 6 MPH (5 knots; 2.6 m/s)
Visibility: 10 or more miles (16+ km)
Ceiling: at least 12,000 feet AGL
Clouds: few clouds at 2100 feet AGL
Weather: no significant weather observed at this time

METAR text: PASI 250753Z 32009KT 10SM CLR 13/11 A3004 RMK AO2 SLP174 T01330106
Conditions at: PASI (SITKA , AK, US) observed 0753 UTC 25 June 2019
Temperature: 13.3°C (56°F)
Dewpoint: 10.6°C (51°F) [RH = 84%]
Pressure (altimeter): 30.04 inches Hg (1017.4 mb)
[Sea-level pressure: 1017.4 mb]
Winds: from the NW (320 degrees) at 10 MPH (9 knots; 4.6 m/s)
Visibility: 10 or more miles (16+ km)
Ceiling: at least 12,000 feet AGL
Clouds: sky clear below 12,000 feet AGL
Weather: no significant weather observed at this time

METAR text: PASI 250742Z 32011KT 10SM SCT020 13/11 A3004 RMK AO2 T01330106
Conditions at: PASI (SITKA , AK, US) observed 0742 UTC 25 June 2019
Temperature: 13.3°C (56°F)
Dewpoint: 10.6°C (51°F) [RH = 84%]
Pressure (altimeter): 30.04 inches Hg (1017.4 mb)
Winds: from the NW (320 degrees) at 13 MPH (11 knots; 5.7 m/s)
Visibility: 10 or more miles (16+ km)
Ceiling: at least 12,000 feet AGL
Clouds: scattered clouds at 2000 feet AGL
Weather: no significant weather observed at this time

METAR text: PASI 250720Z 32011KT 10SM BKN019 14/11 A3004 RMK AO2 T01390111
Conditions at: PASI (SITKA , AK, US) observed 0720 UTC 25 June 2019
Temperature: 13.9°C (57°F)
Dewpoint: 11.1°C (52°F) [RH = 83%]
Pressure (altimeter): 30.04 inches Hg (1017.4 mb)
Winds: from the NW (320 degrees) at 13 MPH (11 knots; 5.7 m/s)
Visibility: 10 or more miles (16+ km)
Ceiling: 1900 feet AGL
Clouds: broken clouds at 1900 feet AGL
Weather: no significant weather observed at this time

METAR text: PASI 250653Z 31011KT 10SM FEW030 14/11 A3004 RMK AO2 SLP174 T01390106
Conditions at: PASI (SITKA , AK, US) observed 0653 UTC 25 June 2019
Temperature: 13.9°C (57°F)
Dewpoint: 10.6°C (51°F) [RH = 80%]
Pressure (altimeter): 30.04 inches Hg (1017.4 mb)
[Sea-level pressure: 1017.4 mb]
Winds: from the NW (310 degrees) at 13 MPH (11 knots; 5.7 m/s)
Visibility: 10 or more miles (16+ km)
Ceiling: at least 12,000 feet AGL
Clouds: few clouds at 3000 feet AGL
Weather: no significant weather observed at this time

METAR text: PASI 250553Z 32012KT 10SM FEW030 14/11 A3003 RMK AO2 SLP169 T01390111 10178 20139 53004
Conditions at: PASI (SITKA , AK, US) observed 0553 UTC 25 June 2019
Temperature: 13.9°C (57°F)
Dewpoint: 11.1°C (52°F) [RH = 83%]
Pressure (altimeter): 30.03 inches Hg (1017.0 mb)
[Sea-level pressure: 1016.9 mb]
Winds: from the NW (320 degrees) at 14 MPH (12 knots; 6.2 m/s)
Visibility: 10 or more miles (16+ km)
Ceiling: at least 12,000 feet AGL
Clouds: few clouds at 3000 feet AGL
Weather: no significant weather observed at this time

METAR text: PASI 250453Z 30013KT 10SM FEW030 15/11 A3003 RMK AO2 SLP169 T01500111
Conditions at: PASI (SITKA , AK, US) observed 0453 UTC 25 June 2019
Temperature: 15.0°C (59°F)
Dewpoint: 11.1°C (52°F) [RH = 77%]
Pressure (altimeter): 30.03 inches Hg (1017.0 mb)
[Sea-level pressure: 1016.9 mb]
Winds: from the WNW (300 degrees) at 15 MPH (13 knots; 6.7 m/s)
Visibility: 10 or more miles (16+ km)
Ceiling: at least 12,000 feet AGL
Clouds: few clouds at 3000 feet AGL
Weather: no significant weather observed at this time

METAR text: PASI 250353Z 29013KT 10SM FEW070 16/12 A3002 RMK AO2 SLP165 T01560117
Conditions at: PASI (SITKA , AK, US) observed 0353 UTC 25 June 2019
Temperature: 15.6°C (60°F)
Dewpoint: 11.7°C (53°F) [RH = 78%]
Pressure (altimeter): 30.02 inches Hg (1016.7 mb)
[Sea-level pressure: 1016.5 mb]
Winds: from the WNW (290 degrees) at 15 MPH (13 knots; 6.7 m/s)
Visibility: 10 or more miles (16+ km)
Ceiling: at least 12,000 feet AGL
Clouds: few clouds at 7000 feet AGL
Weather: no significant weather observed at this time

METAR text: PASI 250253Z 31014KT 10SM SCT070 16/11 A3002 RMK AO2 SLP165 T01560111 56003
Conditions at: PASI (SITKA , AK, US) observed 0253 UTC 25 June 2019
Temperature: 15.6°C (60°F)
Dewpoint: 11.1°C (52°F) [RH = 75%]
Pressure (altimeter): 30.02 inches Hg (1016.7 mb)
[Sea-level pressure: 1016.5 mb]
Winds: from the NW (310 degrees) at 16 MPH (14 knots; 7.2 m/s)
Visibility: 10 or more miles (16+ km)
Ceiling: at least 12,000 feet AGL
Clouds: scattered clouds at 7000 feet AGL
Weather: no significant weather observed at this time

METAR text: PASI 250153Z 30015KT 10SM SCT070 16/11 A3002 RMK AO2 SLP166 T01610111
Conditions at: PASI (SITKA , AK, US) observed 0153 UTC 25 June 2019
Temperature: 16.1°C (61°F)
Dewpoint: 11.1°C (52°F) [RH = 72%]
Pressure (altimeter): 30.02 inches Hg (1016.7 mb)
[Sea-level pressure: 1016.6 mb]
Winds: from the WNW (300 degrees) at 17 MPH (15 knots; 7.7 m/s)
Visibility: 10 or more miles (16+ km)
Ceiling: at least 12,000 feet AGL
Clouds: scattered clouds at 7000 feet AGL
Weather: no significant weather observed at this time

METAR text: PASI 250053Z 31011KT 10SM BKN055 16/11 A3002 RMK AO2 SLP167 T01610111
Conditions at: PASI (SITKA , AK, US) observed 0053 UTC 25 June 2019
Temperature: 16.1°C (61°F)
Dewpoint: 11.1°C (52°F) [RH = 72%]
Pressure (altimeter): 30.02 inches Hg (1016.7 mb)
[Sea-level pressure: 1016.7 mb]
Winds: from the NW (310 degrees) at 13 MPH (11 knots; 5.7 m/s)
Visibility: 10 or more miles (16+ km)
Ceiling: 5500 feet AGL
Clouds: broken clouds at 5500 feet AGL
Weather: no significant weather observed at this time

METAR text: PASI 242353Z 28012KT 10SM FEW035 SCT070 18/12 A3003 RMK AO2 SLP169 T01780117 10178 20128 58006
Conditions at: PASI (SITKA , AK, US) observed 2353 UTC 24 June 2019
Temperature: 17.8°C (64°F)
Dewpoint: 11.7°C (53°F) [RH = 67%]
Pressure (altimeter): 30.03 inches Hg (1017.0 mb)
[Sea-level pressure: 1016.9 mb]
Winds: from the W (280 degrees) at 14 MPH (12 knots; 6.2 m/s)
Visibility: 10 or more miles (16+ km)
Ceiling: at least 12,000 feet AGL
Clouds: few clouds at 3500 feet AGL
scattered clouds at 7000 feet AGL
Weather: no significant weather observed at this time

METAR text: PASI 242253Z 24003KT 10SM FEW049 BKN070 17/09 A3004 RMK AO2 SLP173 T01670094
Conditions at: PASI (SITKA , AK, US) observed 2253 UTC 24 June 2019
Temperature: 16.7°C (62°F)
Dewpoint: 9.4°C (49°F) [RH = 62%]
Pressure (altimeter): 30.04 inches Hg (1017.4 mb)
[Sea-level pressure: 1017.3 mb]
Winds: from the WSW (240 degrees) at 3 MPH (3 knots; 1.5 m/s)
Visibility: 10 or more miles (16+ km)
Ceiling: 7000 feet AGL
Clouds: few clouds at 4900 feet AGL
broken clouds at 7000 feet AGL
Weather: no significant weather observed at this time

METAR text: PASI 242153Z 26005KT 10SM FEW030 17/10 A3004 RMK AO2 SLP173 T01670100
Conditions at: PASI (SITKA , AK, US) observed 2153 UTC 24 June 2019
Temperature: 16.7°C (62°F)
Dewpoint: 10.0°C (50°F) [RH = 65%]
Pressure (altimeter): 30.04 inches Hg (1017.4 mb)
[Sea-level pressure: 1017.3 mb]
Winds: from the W (260 degrees) at 6 MPH (5 knots; 2.6 m/s)
Visibility: 10 or more miles (16+ km)
Ceiling: at least 12,000 feet AGL
Clouds: few clouds at 3000 feet AGL
Weather: no significant weather observed at this time

METAR text: PASI 242053Z 22004KT 10SM FEW030 16/11 A3005 RMK AO2 SLP175 T01610111 56002
Conditions at: PASI (SITKA , AK, US) observed 2053 UTC 24 June 2019
Temperature: 16.1°C (61°F)
Dewpoint: 11.1°C (52°F) [RH = 72%]
Pressure (altimeter): 30.05 inches Hg (1017.7 mb)
[Sea-level pressure: 1017.5 mb]
Winds: from the SW (220 degrees) at 5 MPH (4 knots; 2.1 m/s)
Visibility: 10 or more miles (16+ km)
Ceiling: at least 12,000 feet AGL
Clouds: few clouds at 3000 feet AGL
Weather: no significant weather observed at this time

METAR text: PASI 241953Z 22005KT 10SM FEW030 15/11 A3005 RMK AO2 SLP175 T01500106
Conditions at: PASI (SITKA , AK, US) observed 1953 UTC 24 June 2019
Temperature: 15.0°C (59°F)
Dewpoint: 10.6°C (51°F) [RH = 75%]
Pressure (altimeter): 30.05 inches Hg (1017.7 mb)
[Sea-level pressure: 1017.5 mb]
Winds: from the SW (220 degrees) at 6 MPH (5 knots; 2.6 m/s)
Visibility: 10 or more miles (16+ km)
Ceiling: at least 12,000 feet AGL
Clouds: few clouds at 3000 feet AGL
Weather: no significant weather observed at this time

METAR text: PASI 241853Z 22007KT 10SM FEW030 14/11 A3005 RMK AO2 SLP176 T01390106
Conditions at: PASI (SITKA , AK, US) observed 1853 UTC 24 June 2019
Temperature: 13.9°C (57°F)
Dewpoint: 10.6°C (51°F) [RH = 80%]
Pressure (altimeter): 30.05 inches Hg (1017.7 mb)
[Sea-level pressure: 1017.6 mb]
Winds: from the SW (220 degrees) at 8 MPH (7 knots; 3.6 m/s)
Visibility: 10 or more miles (16+ km)
Ceiling: at least 12,000 feet AGL
Clouds: few clouds at 3000 feet AGL
Weather: no significant weather observed at this time

METAR text: PASI 241753Z 23003KT 10SM FEW030 13/09 A3005 RMK AO2 SLP176 T01280094 10128 20083 53002
Conditions at: PASI (SITKA , AK, US) observed 1753 UTC 24 June 2019
Temperature: 12.8°C (55°F)
Dewpoint: 9.4°C (49°F) [RH = 80%]
Pressure (altimeter): 30.05 inches Hg (1017.7 mb)
[Sea-level pressure: 1017.6 mb]
Winds: from the SW (230 degrees) at 3 MPH (3 knots; 1.5 m/s)
Visibility: 10 or more miles (16+ km)
Ceiling: at least 12,000 feet AGL
Clouds: few clouds at 3000 feet AGL
Weather: no significant weather observed at this time

METAR text: PASI 241653Z 00000KT 10SM FEW030 12/09 A3005 RMK AO2 SLP175 T01220094
Conditions at: PASI (SITKA , AK, US) observed 1653 UTC 24 June 2019
Temperature: 12.2°C (54°F)
Dewpoint: 9.4°C (49°F) [RH = 83%]
Pressure (altimeter): 30.05 inches Hg (1017.7 mb)
[Sea-level pressure: 1017.5 mb]
Winds: calm
Visibility: 10 or more miles (16+ km)
Ceiling: at least 12,000 feet AGL
Clouds: few clouds at 3000 feet AGL
Weather: no significant weather observed at this time

Forecast for: PASI (SITKA , AK, US)
Text: PASI 252320Z 2600/2624 30014KT P6SM FEW030
Forecast period: 0000 to 0700 UTC 26 June 2019
Forecast type: FROM: standard forecast or significant change
Winds: from the WNW (300 degrees) at 16 MPH (14 knots; 7.2 m/s)
Visibility: 6 or more miles 10+ km)
Ceiling: at least 12,000 feet AGL
Clouds: few clouds at 3000 feet AGL
Weather: no significant weather forecast for this period
Text: FM260700 33006KT P6SM BKN020
Forecast period: 0700 to 1200 UTC 26 June 2019
Forecast type: FROM: standard forecast or significant change
Winds: from the NNW (330 degrees) at 7 MPH (6 knots; 3.1 m/s)
Visibility: 6 or more miles 10+ km)
Ceiling: 2000 feet AGL
Clouds: broken clouds at 2000 feet AGL
Weather: no significant weather forecast for this period
Text: FM261200 34004KT P6SM BKN010 OVC020
Forecast period: 1200 UTC 26 June 2019 to 0000 UTC 27 June 2019
Forecast type: FROM: standard forecast or significant change
Winds: from the NNW (340 degrees) at 5 MPH (4 knots; 2.1 m/s)
Visibility: 6 or more miles 10+ km)
Ceiling: 1000 feet AGL
Clouds: broken clouds at 1000 feet AGL
overcast cloud deck at 2000 feet AGL
Weather: no significant weather forecast for this period